sensor_id;sensor_type;location;lat;lon;timestamp;P1;durP1;ratioP1;P2;durP2;ratioP2
22603;SDS011;11469;49.024;8.246;2024-02-26T00:01:27;8.20;;;2.78;;
22603;SDS011;11469;49.024;8.246;2024-02-26T00:03:53;7.47;;;3.53;;
22603;SDS011;11469;49.024;8.246;2024-02-26T00:06:20;4.97;;;2.85;;
22603;SDS011;11469;49.024;8.246;2024-02-26T00:08:46;6.47;;;3.00;;
22603;SDS011;11469;49.024;8.246;2024-02-26T00:11:11;6.85;;;2.55;;
22603;SDS011;11469;49.024;8.246;2024-02-26T00:13:36;4.72;;;2.60;;
22603;SDS011;11469;49.024;8.246;2024-02-26T00:16:03;5.88;;;2.53;;
22603;SDS011;11469;49.024;8.246;2024-02-26T00:18:29;4.53;;;2.17;;
22603;SDS011;11469;49.024;8.246;2024-02-26T00:20:54;6.90;;;2.35;;
22603;SDS011;11469;49.024;8.246;2024-02-26T00:23:20;5.43;;;2.67;;
22603;SDS011;11469;49.024;8.246;2024-02-26T00:25:45;4.97;;;2.45;;
22603;SDS011;11469;49.024;8.246;2024-02-26T00:28:11;6.63;;;2.42;;
22603;SDS011;11469;49.024;8.246;2024-02-26T00:30:38;5.60;;;1.83;;
22603;SDS011;11469;49.024;8.246;2024-02-26T00:33:03;12.15;;;3.65;;
22603;SDS011;11469;49.024;8.246;2024-02-26T00:35:29;5.88;;;3.00;;
22603;SDS011;11469;49.024;8.246;2024-02-26T00:37:54;6.72;;;2.55;;
22603;SDS011;11469;49.024;8.246;2024-02-26T00:40:20;6.05;;;3.00;;
22603;SDS011;11469;49.024;8.246;2024-02-26T00:42:45;9.18;;;2.78;;
22603;SDS011;11469;49.024;8.246;2024-02-26T00:45:14;5.72;;;1.85;;
22603;SDS011;11469;49.024;8.246;2024-02-26T00:47:41;6.03;;;1.83;;
22603;SDS011;11469;49.024;8.246;2024-02-26T00:50:07;4.05;;;2.10;;
22603;SDS011;11469;49.024;8.246;2024-02-26T00:52:33;6.88;;;3.10;;
22603;SDS011;11469;49.024;8.246;2024-02-26T00:54:59;5.32;;;2.45;;
22603;SDS011;11469;49.024;8.246;2024-02-26T00:57:25;5.63;;;2.40;;
22603;SDS011;11469;49.024;8.246;2024-02-26T00:59:50;4.70;;;2.20;;
22603;SDS011;11469;49.024;8.246;2024-02-26T01:02:16;5.70;;;2.65;;
22603;SDS011;11469;49.024;8.246;2024-02-26T01:04:41;8.48;;;4.05;;
22603;SDS011;11469;49.024;8.246;2024-02-26T01:07:07;11.80;;;4.60;;
22603;SDS011;11469;49.024;8.246;2024-02-26T01:09:32;10.65;;;4.38;;
22603;SDS011;11469;49.024;8.246;2024-02-26T01:11:58;8.65;;;4.05;;
22603;SDS011;11469;49.024;8.246;2024-02-26T01:14:23;3.20;;;1.20;;
22603;SDS011;11469;49.024;8.246;2024-02-26T01:16:49;2.05;;;0.70;;
22603;SDS011;11469;49.024;8.246;2024-02-26T01:19:14;1.65;;;0.30;;
22603;SDS011;11469;49.024;8.246;2024-02-26T01:21:40;0.55;;;0.15;;
22603;SDS011;11469;49.024;8.246;2024-02-26T01:24:05;0.30;;;0.20;;
22603;SDS011;11469;49.024;8.246;2024-02-26T01:26:31;0.93;;;0.32;;
22603;SDS011;11469;49.024;8.246;2024-02-26T01:28:56;0.13;;;0.10;;
22603;SDS011;11469;49.024;8.246;2024-02-26T01:31:21;1.30;;;0.43;;
22603;SDS011;11469;49.024;8.246;2024-02-26T01:33:47;0.65;;;0.38;;
22603;SDS011;11469;49.024;8.246;2024-02-26T01:36:12;0.57;;;0.20;;
22603;SDS011;11469;49.024;8.246;2024-02-26T01:38:37;3.60;;;0.40;;
22603;SDS011;11469;49.024;8.246;2024-02-26T01:41:03;1.70;;;0.30;;
22603;SDS011;11469;49.024;8.246;2024-02-26T01:43:28;0.38;;;0.30;;
22603;SDS011;11469;49.024;8.246;2024-02-26T01:45:54;0.90;;;0.20;;
22603;SDS011;11469;49.024;8.246;2024-02-26T01:48:20;1.35;;;0.30;;
22603;SDS011;11469;49.024;8.246;2024-02-26T01:50:45;0.43;;;0.30;;
22603;SDS011;11469;49.024;8.246;2024-02-26T01:53:11;0.80;;;0.40;;
22603;SDS011;11469;49.024;8.246;2024-02-26T01:55:37;0.60;;;0.20;;
22603;SDS011;11469;49.024;8.246;2024-02-26T01:58:03;0.73;;;0.30;;
22603;SDS011;11469;49.024;8.246;2024-02-26T02:00:30;0.90;;;0.30;;
22603;SDS011;11469;49.024;8.246;2024-02-26T02:02:55;0.52;;;0.25;;
22603;SDS011;11469;49.024;8.246;2024-02-26T02:05:21;3.13;;;0.30;;
22603;SDS011;11469;49.024;8.246;2024-02-26T02:07:47;0.55;;;0.30;;
22603;SDS011;11469;49.024;8.246;2024-02-26T02:10:14;1.70;;;0.38;;
22603;SDS011;11469;49.024;8.246;2024-02-26T02:12:51;0.47;;;0.22;;
22603;SDS011;11469;49.024;8.246;2024-02-26T02:15:17;0.75;;;0.30;;
22603;SDS011;11469;49.024;8.246;2024-02-26T02:17:42;0.57;;;0.38;;
22603;SDS011;11469;49.024;8.246;2024-02-26T02:20:15;2.28;;;0.40;;
22603;SDS011;11469;49.024;8.246;2024-02-26T02:22:44;2.17;;;0.20;;
22603;SDS011;11469;49.024;8.246;2024-02-26T02:25:10;1.48;;;0.40;;
22603;SDS011;11469;49.024;8.246;2024-02-26T02:27:36;3.20;;;0.30;;
22603;SDS011;11469;49.024;8.246;2024-02-26T02:30:01;0.68;;;0.30;;
22603;SDS011;11469;49.024;8.246;2024-02-26T02:32:27;0.73;;;0.45;;
22603;SDS011;11469;49.024;8.246;2024-02-26T02:34:54;0.60;;;0.30;;
22603;SDS011;11469;49.024;8.246;2024-02-26T02:37:21;1.08;;;0.50;;
22603;SDS011;11469;49.024;8.246;2024-02-26T02:39:46;2.20;;;0.45;;
22603;SDS011;11469;49.024;8.246;2024-02-26T02:42:12;1.00;;;0.35;;
22603;SDS011;11469;49.024;8.246;2024-02-26T02:44:38;0.75;;;0.40;;
22603;SDS011;11469;49.024;8.246;2024-02-26T02:47:03;4.15;;;0.40;;
22603;SDS011;11469;49.024;8.246;2024-02-26T02:49:28;1.02;;;0.40;;
22603;SDS011;11469;49.024;8.246;2024-02-26T02:51:54;2.88;;;0.47;;
22603;SDS011;11469;49.024;8.246;2024-02-26T02:54:19;0.85;;;0.45;;
22603;SDS011;11469;49.024;8.246;2024-02-26T02:56:45;1.17;;;0.60;;
22603;SDS011;11469;49.024;8.246;2024-02-26T02:59:10;4.22;;;2.35;;
22603;SDS011;11469;49.024;8.246;2024-02-26T03:01:36;6.32;;;2.97;;
22603;SDS011;11469;49.024;8.246;2024-02-26T03:04:01;3.55;;;0.73;;
22603;SDS011;11469;49.024;8.246;2024-02-26T03:06:27;1.65;;;0.68;;
22603;SDS011;11469;49.024;8.246;2024-02-26T03:08:53;0.95;;;0.70;;
22603;SDS011;11469;49.024;8.246;2024-02-26T03:11:19;3.67;;;0.50;;
22603;SDS011;11469;49.024;8.246;2024-02-26T03:13:45;0.60;;;0.50;;
22603;SDS011;11469;49.024;8.246;2024-02-26T03:16:10;0.88;;;0.50;;
22603;SDS011;11469;49.024;8.246;2024-02-26T03:18:38;2.60;;;0.60;;
22603;SDS011;11469;49.024;8.246;2024-02-26T03:21:04;1.10;;;0.50;;
22603;SDS011;11469;49.024;8.246;2024-02-26T03:23:29;1.17;;;0.60;;
22603;SDS011;11469;49.024;8.246;2024-02-26T03:25:57;2.72;;;0.73;;
22603;SDS011;11469;49.024;8.246;2024-02-26T03:28:23;2.30;;;0.50;;
22603;SDS011;11469;49.024;8.246;2024-02-26T03:30:48;0.98;;;0.50;;
22603;SDS011;11469;49.024;8.246;2024-02-26T03:33:14;2.85;;;1.10;;
22603;SDS011;11469;49.024;8.246;2024-02-26T03:35:39;1.83;;;0.80;;
22603;SDS011;11469;49.024;8.246;2024-02-26T03:38:04;3.63;;;0.70;;
22603;SDS011;11469;49.024;8.246;2024-02-26T03:40:30;3.58;;;0.93;;
22603;SDS011;11469;49.024;8.246;2024-02-26T03:42:55;1.70;;;0.63;;
22603;SDS011;11469;49.024;8.246;2024-02-26T03:45:22;1.45;;;0.70;;
22603;SDS011;11469;49.024;8.246;2024-02-26T03:47:47;6.45;;;0.85;;
22603;SDS011;11469;49.024;8.246;2024-02-26T03:50:13;2.33;;;0.65;;
22603;SDS011;11469;49.024;8.246;2024-02-26T03:52:38;3.72;;;0.73;;
22603;SDS011;11469;49.024;8.246;2024-02-26T03:55:04;2.85;;;1.27;;
22603;SDS011;11469;49.024;8.246;2024-02-26T03:57:29;1.70;;;0.55;;
22603;SDS011;11469;49.024;8.246;2024-02-26T03:59:55;1.77;;;0.63;;
22603;SDS011;11469;49.024;8.246;2024-02-26T04:02:21;1.65;;;0.77;;
22603;SDS011;11469;49.024;8.246;2024-02-26T04:04:48;1.85;;;0.70;;
22603;SDS011;11469;49.024;8.246;2024-02-26T04:07:13;1.17;;;0.65;;
22603;SDS011;11469;49.024;8.246;2024-02-26T04:09:39;2.00;;;1.23;;
22603;SDS011;11469;49.024;8.246;2024-02-26T04:12:04;2.45;;;1.10;;
22603;SDS011;11469;49.024;8.246;2024-02-26T04:14:30;4.80;;;1.00;;
22603;SDS011;11469;49.024;8.246;2024-02-26T04:16:56;7.03;;;1.55;;
22603;SDS011;11469;49.024;8.246;2024-02-26T04:19:21;4.70;;;1.15;;
22603;SDS011;11469;49.024;8.246;2024-02-26T04:21:46;2.05;;;0.93;;
22603;SDS011;11469;49.024;8.246;2024-02-26T04:24:12;6.70;;;3.25;;
22603;SDS011;11469;49.024;8.246;2024-02-26T04:26:37;4.97;;;1.30;;
22603;SDS011;11469;49.024;8.246;2024-02-26T04:29:02;6.13;;;2.78;;
22603;SDS011;11469;49.024;8.246;2024-02-26T04:31:28;5.60;;;2.47;;
22603;SDS011;11469;49.024;8.246;2024-02-26T04:33:53;4.43;;;1.40;;
22603;SDS011;11469;49.024;8.246;2024-02-26T04:36:19;3.80;;;0.93;;
22603;SDS011;11469;49.024;8.246;2024-02-26T04:38:44;7.65;;;1.80;;
22603;SDS011;11469;49.024;8.246;2024-02-26T04:41:10;1.73;;;1.08;;
22603;SDS011;11469;49.024;8.246;2024-02-26T04:43:36;2.47;;;1.20;;
22603;SDS011;11469;49.024;8.246;2024-02-26T04:46:06;2.10;;;1.00;;
22603;SDS011;11469;49.024;8.246;2024-02-26T04:48:35;4.20;;;1.48;;
22603;SDS011;11469;49.024;8.246;2024-02-26T04:51:01;4.75;;;1.20;;
22603;SDS011;11469;49.024;8.246;2024-02-26T04:53:28;6.22;;;2.20;;
22603;SDS011;11469;49.024;8.246;2024-02-26T04:55:53;3.78;;;1.23;;
22603;SDS011;11469;49.024;8.246;2024-02-26T04:58:18;3.90;;;1.15;;
22603;SDS011;11469;49.024;8.246;2024-02-26T05:00:44;1.95;;;1.20;;
22603;SDS011;11469;49.024;8.246;2024-02-26T05:03:09;6.13;;;1.15;;
22603;SDS011;11469;49.024;8.246;2024-02-26T05:05:38;4.85;;;1.33;;
22603;SDS011;11469;49.024;8.246;2024-02-26T05:08:04;2.95;;;1.20;;
22603;SDS011;11469;49.024;8.246;2024-02-26T05:10:30;2.05;;;1.20;;
22603;SDS011;11469;49.024;8.246;2024-02-26T05:12:55;2.45;;;1.30;;
22603;SDS011;11469;49.024;8.246;2024-02-26T05:15:22;2.67;;;1.58;;
22603;SDS011;11469;49.024;8.246;2024-02-26T05:17:47;2.00;;;1.23;;
22603;SDS011;11469;49.024;8.246;2024-02-26T05:20:13;5.28;;;1.88;;
22603;SDS011;11469;49.024;8.246;2024-02-26T05:22:38;5.20;;;1.70;;
22603;SDS011;11469;49.024;8.246;2024-02-26T05:25:03;2.22;;;1.50;;
22603;SDS011;11469;49.024;8.246;2024-02-26T05:27:29;2.00;;;0.95;;
22603;SDS011;11469;49.024;8.246;2024-02-26T05:29:54;2.10;;;1.00;;
22603;SDS011;11469;49.024;8.246;2024-02-26T05:32:20;4.40;;;1.50;;
22603;SDS011;11469;49.024;8.246;2024-02-26T05:34:45;6.30;;;2.70;;
22603;SDS011;11469;49.024;8.246;2024-02-26T05:37:10;6.70;;;2.80;;
22603;SDS011;11469;49.024;8.246;2024-02-26T05:39:36;5.80;;;2.78;;
22603;SDS011;11469;49.024;8.246;2024-02-26T05:42:02;7.68;;;3.20;;
22603;SDS011;11469;49.024;8.246;2024-02-26T05:44:28;5.28;;;2.25;;
22603;SDS011;11469;49.024;8.246;2024-02-26T05:46:53;4.85;;;2.25;;
22603;SDS011;11469;49.024;8.246;2024-02-26T05:49:19;2.90;;;1.23;;
22603;SDS011;11469;49.024;8.246;2024-02-26T05:51:44;2.10;;;1.40;;
22603;SDS011;11469;49.024;8.246;2024-02-26T05:54:10;1.92;;;0.93;;
22603;SDS011;11469;49.024;8.246;2024-02-26T05:56:36;2.17;;;0.90;;
22603;SDS011;11469;49.024;8.246;2024-02-26T05:59:01;1.45;;;0.70;;
22603;SDS011;11469;49.024;8.246;2024-02-26T06:01:26;1.58;;;0.75;;
22603;SDS011;11469;49.024;8.246;2024-02-26T06:03:52;1.52;;;0.70;;
22603;SDS011;11469;49.024;8.246;2024-02-26T06:06:17;1.35;;;0.75;;
22603;SDS011;11469;49.024;8.246;2024-02-26T06:08:43;2.22;;;1.00;;
22603;SDS011;11469;49.024;8.246;2024-02-26T06:11:08;1.95;;;0.98;;
22603;SDS011;11469;49.024;8.246;2024-02-26T06:13:34;2.85;;;1.40;;
22603;SDS011;11469;49.024;8.246;2024-02-26T06:16:00;3.90;;;1.50;;
22603;SDS011;11469;49.024;8.246;2024-02-26T06:18:25;4.63;;;1.83;;
22603;SDS011;11469;49.024;8.246;2024-02-26T06:20:50;5.32;;;1.67;;
22603;SDS011;11469;49.024;8.246;2024-02-26T06:23:16;2.47;;;1.27;;
22603;SDS011;11469;49.024;8.246;2024-02-26T06:25:41;4.07;;;1.65;;
22603;SDS011;11469;49.024;8.246;2024-02-26T06:28:08;7.10;;;1.42;;
22603;SDS011;11469;49.024;8.246;2024-02-26T06:30:33;3.08;;;1.25;;
22603;SDS011;11469;49.024;8.246;2024-02-26T06:32:59;3.35;;;1.63;;
22603;SDS011;11469;49.024;8.246;2024-02-26T06:35:24;4.50;;;1.70;;
22603;SDS011;11469;49.024;8.246;2024-02-26T06:37:50;2.42;;;1.70;;
22603;SDS011;11469;49.024;8.246;2024-02-26T06:40:17;5.68;;;2.20;;
22603;SDS011;11469;49.024;8.246;2024-02-26T06:42:43;7.20;;;2.40;;
22603;SDS011;11469;49.024;8.246;2024-02-26T06:45:09;4.25;;;1.88;;
22603;SDS011;11469;49.024;8.246;2024-02-26T06:47:35;3.78;;;1.80;;
22603;SDS011;11469;49.024;8.246;2024-02-26T06:50:00;5.32;;;1.30;;
22603;SDS011;11469;49.024;8.246;2024-02-26T06:52:26;7.25;;;2.17;;
22603;SDS011;11469;49.024;8.246;2024-02-26T06:54:51;3.47;;;1.27;;
22603;SDS011;11469;49.024;8.246;2024-02-26T06:57:19;3.47;;;1.50;;
22603;SDS011;11469;49.024;8.246;2024-02-26T06:59:44;3.95;;;1.58;;
22603;SDS011;11469;49.024;8.246;2024-02-26T07:02:12;2.17;;;1.20;;
22603;SDS011;11469;49.024;8.246;2024-02-26T07:04:38;3.35;;;1.00;;
22603;SDS011;11469;49.024;8.246;2024-02-26T07:07:03;2.55;;;1.20;;
22603;SDS011;11469;49.024;8.246;2024-02-26T07:09:29;3.58;;;1.13;;
22603;SDS011;11469;49.024;8.246;2024-02-26T07:11:54;3.08;;;1.10;;
22603;SDS011;11469;49.024;8.246;2024-02-26T07:14:20;3.15;;;1.25;;
22603;SDS011;11469;49.024;8.246;2024-02-26T07:16:45;10.18;;;3.05;;
22603;SDS011;11469;49.024;8.246;2024-02-26T07:19:11;7.60;;;1.13;;
22603;SDS011;11469;49.024;8.246;2024-02-26T07:21:36;4.10;;;1.00;;
22603;SDS011;11469;49.024;8.246;2024-02-26T07:24:02;24.98;;;10.57;;
22603;SDS011;11469;49.024;8.246;2024-02-26T07:26:27;12.63;;;5.38;;
22603;SDS011;11469;49.024;8.246;2024-02-26T07:28:55;5.88;;;1.92;;
22603;SDS011;11469;49.024;8.246;2024-02-26T07:31:21;3.28;;;1.40;;
22603;SDS011;11469;49.024;8.246;2024-02-26T07:33:46;4.95;;;1.33;;
22603;SDS011;11469;49.024;8.246;2024-02-26T07:36:11;4.45;;;1.30;;
22603;SDS011;11469;49.024;8.246;2024-02-26T07:38:37;2.03;;;1.38;;
22603;SDS011;11469;49.024;8.246;2024-02-26T07:41:02;3.17;;;1.10;;
22603;SDS011;11469;49.024;8.246;2024-02-26T07:43:28;5.90;;;0.68;;
22603;SDS011;11469;49.024;8.246;2024-02-26T07:45:53;1.50;;;0.80;;
22603;SDS011;11469;49.024;8.246;2024-02-26T07:48:19;2.80;;;1.00;;
22603;SDS011;11469;49.024;8.246;2024-02-26T07:50:44;5.80;;;1.02;;
22603;SDS011;11469;49.024;8.246;2024-02-26T07:53:09;2.25;;;1.08;;
22603;SDS011;11469;49.024;8.246;2024-02-26T07:55:35;2.05;;;0.93;;
22603;SDS011;11469;49.024;8.246;2024-02-26T07:58:00;3.17;;;1.60;;
22603;SDS011;11469;49.024;8.246;2024-02-26T08:00:26;6.25;;;1.20;;
22603;SDS011;11469;49.024;8.246;2024-02-26T08:02:51;3.55;;;0.90;;
22603;SDS011;11469;49.024;8.246;2024-02-26T08:05:16;4.22;;;1.45;;
22603;SDS011;11469;49.024;8.246;2024-02-26T08:07:42;3.45;;;1.48;;
22603;SDS011;11469;49.024;8.246;2024-02-26T08:10:07;5.22;;;1.52;;
22603;SDS011;11469;49.024;8.246;2024-02-26T08:12:33;3.17;;;1.80;;
22603;SDS011;11469;49.024;8.246;2024-02-26T08:14:58;4.32;;;1.90;;
22603;SDS011;11469;49.024;8.246;2024-02-26T08:17:25;3.65;;;2.35;;
22603;SDS011;11469;49.024;8.246;2024-02-26T08:19:50;3.08;;;2.00;;
22603;SDS011;11469;49.024;8.246;2024-02-26T08:22:16;3.80;;;2.10;;
22603;SDS011;11469;49.024;8.246;2024-02-26T08:24:42;2.90;;;1.77;;
22603;SDS011;11469;49.024;8.246;2024-02-26T08:27:08;5.45;;;2.20;;
22603;SDS011;11469;49.024;8.246;2024-02-26T08:29:34;5.50;;;2.63;;
22603;SDS011;11469;49.024;8.246;2024-02-26T08:31:59;6.22;;;2.65;;
22603;SDS011;11469;49.024;8.246;2024-02-26T08:34:25;3.63;;;1.58;;
22603;SDS011;11469;49.024;8.246;2024-02-26T08:36:51;7.72;;;2.50;;
22603;SDS011;11469;49.024;8.246;2024-02-26T08:39:16;2.80;;;1.77;;
22603;SDS011;11469;49.024;8.246;2024-02-26T08:41:42;4.18;;;2.13;;
22603;SDS011;11469;49.024;8.246;2024-02-26T08:44:08;5.90;;;2.15;;
22603;SDS011;11469;49.024;8.246;2024-02-26T08:46:34;3.47;;;2.00;;
22603;SDS011;11469;49.024;8.246;2024-02-26T08:49:00;4.97;;;2.20;;
22603;SDS011;11469;49.024;8.246;2024-02-26T08:51:25;5.28;;;1.58;;
22603;SDS011;11469;49.024;8.246;2024-02-26T08:53:50;2.72;;;1.85;;
22603;SDS011;11469;49.024;8.246;2024-02-26T08:56:16;4.18;;;2.00;;
22603;SDS011;11469;49.024;8.246;2024-02-26T08:58:45;4.30;;;2.00;;
22603;SDS011;11469;49.024;8.246;2024-02-26T09:01:13;6.82;;;2.85;;
22603;SDS011;11469;49.024;8.246;2024-02-26T09:03:38;5.00;;;2.47;;
22603;SDS011;11469;49.024;8.246;2024-02-26T09:06:05;4.70;;;2.20;;
22603;SDS011;11469;49.024;8.246;2024-02-26T09:08:32;3.50;;;1.80;;
22603;SDS011;11469;49.024;8.246;2024-02-26T09:10:57;5.30;;;2.10;;
22603;SDS011;11469;49.024;8.246;2024-02-26T09:13:23;3.33;;;1.90;;
22603;SDS011;11469;49.024;8.246;2024-02-26T09:15:48;3.80;;;1.90;;
22603;SDS011;11469;49.024;8.246;2024-02-26T09:18:14;3.28;;;1.90;;
22603;SDS011;11469;49.024;8.246;2024-02-26T09:20:40;7.68;;;1.83;;
22603;SDS011;11469;49.024;8.246;2024-02-26T09:23:06;5.20;;;1.50;;
22603;SDS011;11469;49.024;8.246;2024-02-26T09:25:31;3.80;;;1.88;;
22603;SDS011;11469;49.024;8.246;2024-02-26T09:27:58;3.60;;;1.98;;
22603;SDS011;11469;49.024;8.246;2024-02-26T09:30:24;3.55;;;1.88;;
22603;SDS011;11469;49.024;8.246;2024-02-26T09:32:49;7.15;;;1.70;;
22603;SDS011;11469;49.024;8.246;2024-02-26T09:35:15;3.97;;;1.48;;
22603;SDS011;11469;49.024;8.246;2024-02-26T09:37:40;10.98;;;1.90;;
22603;SDS011;11469;49.024;8.246;2024-02-26T09:40:07;6.07;;;2.47;;
22603;SDS011;11469;49.024;8.246;2024-02-26T09:42:37;4.45;;;1.90;;
22603;SDS011;11469;49.024;8.246;2024-02-26T09:45:05;4.05;;;1.92;;
22603;SDS011;11469;49.024;8.246;2024-02-26T09:47:34;7.07;;;2.22;;
22603;SDS011;11469;49.024;8.246;2024-02-26T09:50:01;15.98;;;2.33;;
22603;SDS011;11469;49.024;8.246;2024-02-26T09:52:28;4.47;;;2.08;;
22603;SDS011;11469;49.024;8.246;2024-02-26T09:54:56;3.78;;;1.90;;
22603;SDS011;11469;49.024;8.246;2024-02-26T09:57:21;9.75;;;2.10;;
22603;SDS011;11469;49.024;8.246;2024-02-26T09:59:49;7.30;;;2.08;;
22603;SDS011;11469;49.024;8.246;2024-02-26T10:02:18;4.78;;;1.88;;
22603;SDS011;11469;49.024;8.246;2024-02-26T10:04:45;3.88;;;2.00;;
22603;SDS011;11469;49.024;8.246;2024-02-26T10:07:12;3.50;;;1.80;;
22603;SDS011;11469;49.024;8.246;2024-02-26T10:09:38;4.95;;;1.65;;
22603;SDS011;11469;49.024;8.246;2024-02-26T10:12:05;9.85;;;1.90;;
22603;SDS011;11469;49.024;8.246;2024-02-26T10:14:33;5.65;;;1.95;;
22603;SDS011;11469;49.024;8.246;2024-02-26T10:16:59;3.65;;;1.35;;
22603;SDS011;11469;49.024;8.246;2024-02-26T10:19:26;4.03;;;1.80;;
22603;SDS011;11469;49.024;8.246;2024-02-26T10:21:57;3.90;;;1.80;;
22603;SDS011;11469;49.024;8.246;2024-02-26T10:24:25;3.65;;;2.00;;
22603;SDS011;11469;49.024;8.246;2024-02-26T10:26:56;2.30;;;1.40;;
22603;SDS011;11469;49.024;8.246;2024-02-26T10:29:23;3.90;;;1.60;;
22603;SDS011;11469;49.024;8.246;2024-02-26T10:31:50;5.20;;;1.65;;
22603;SDS011;11469;49.024;8.246;2024-02-26T10:34:16;2.90;;;1.50;;
22603;SDS011;11469;49.024;8.246;2024-02-26T10:36:41;3.78;;;1.40;;
22603;SDS011;11469;49.024;8.246;2024-02-26T10:39:07;6.35;;;1.52;;
22603;SDS011;11469;49.024;8.246;2024-02-26T10:41:33;4.35;;;1.60;;
22603;SDS011;11469;49.024;8.246;2024-02-26T10:43:59;5.15;;;1.98;;
22603;SDS011;11469;49.024;8.246;2024-02-26T10:46:25;3.78;;;1.60;;
22603;SDS011;11469;49.024;8.246;2024-02-26T10:48:51;3.35;;;1.33;;
22603;SDS011;11469;49.024;8.246;2024-02-26T10:51:21;2.03;;;1.35;;
22603;SDS011;11469;49.024;8.246;2024-02-26T10:53:51;4.35;;;1.80;;
22603;SDS011;11469;49.024;8.246;2024-02-26T10:56:24;9.95;;;2.17;;
22603;SDS011;11469;49.024;8.246;2024-02-26T10:58:50;2.95;;;1.65;;
22603;SDS011;11469;49.024;8.246;2024-02-26T11:01:17;3.58;;;1.65;;
22603;SDS011;11469;49.024;8.246;2024-02-26T11:03:45;4.18;;;1.70;;
22603;SDS011;11469;49.024;8.246;2024-02-26T11:06:11;5.93;;;1.90;;
22603;SDS011;11469;49.024;8.246;2024-02-26T11:08:37;3.20;;;1.50;;
22603;SDS011;11469;49.024;8.246;2024-02-26T11:11:05;3.70;;;1.40;;
22603;SDS011;11469;49.024;8.246;2024-02-26T11:13:31;4.22;;;1.65;;
22603;SDS011;11469;49.024;8.246;2024-02-26T11:15:58;4.25;;;1.65;;
22603;SDS011;11469;49.024;8.246;2024-02-26T11:18:26;2.33;;;1.58;;
22603;SDS011;11469;49.024;8.246;2024-02-26T11:20:52;3.53;;;1.55;;
22603;SDS011;11469;49.024;8.246;2024-02-26T11:23:22;5.55;;;2.42;;
22603;SDS011;11469;49.024;8.246;2024-02-26T11:25:48;3.30;;;1.63;;
22603;SDS011;11469;49.024;8.246;2024-02-26T11:28:17;3.90;;;1.52;;
22603;SDS011;11469;49.024;8.246;2024-02-26T11:30:47;2.80;;;1.40;;
22603;SDS011;11469;49.024;8.246;2024-02-26T11:33:14;2.53;;;1.25;;
22603;SDS011;11469;49.024;8.246;2024-02-26T11:35:41;4.90;;;1.77;;
22603;SDS011;11469;49.024;8.246;2024-02-26T11:38:07;5.85;;;2.13;;
22603;SDS011;11469;49.024;8.246;2024-02-26T11:40:33;2.42;;;1.33;;
22603;SDS011;11469;49.024;8.246;2024-02-26T11:43:03;8.90;;;1.80;;
22603;SDS011;11469;49.024;8.246;2024-02-26T11:45:47;5.78;;;1.40;;
22603;SDS011;11469;49.024;8.246;2024-02-26T11:48:15;1.75;;;0.98;;
22603;SDS011;11469;49.024;8.246;2024-02-26T11:50:43;7.88;;;1.20;;
22603;SDS011;11469;49.024;8.246;2024-02-26T11:58:41;2.22;;;1.13;;
22603;SDS011;11469;49.024;8.246;2024-02-26T12:04:01;6.93;;;1.27;;
22603;SDS011;11469;49.024;8.246;2024-02-26T12:06:27;2.30;;;0.90;;
22603;SDS011;11469;49.024;8.246;2024-02-26T12:08:53;2.50;;;1.10;;
22603;SDS011;11469;49.024;8.246;2024-02-26T12:11:20;3.28;;;0.90;;
22603;SDS011;11469;49.024;8.246;2024-02-26T12:13:49;1.67;;;0.60;;
22603;SDS011;11469;49.024;8.246;2024-02-26T12:16:34;1.83;;;0.75;;
22603;SDS011;11469;49.024;8.246;2024-02-26T12:19:03;2.55;;;0.98;;
22603;SDS011;11469;49.024;8.246;2024-02-26T12:21:31;5.07;;;0.88;;
22603;SDS011;11469;49.024;8.246;2024-02-26T12:24:06;2.90;;;0.68;;
22603;SDS011;11469;49.024;8.246;2024-02-26T12:26:36;2.25;;;1.08;;
22603;SDS011;11469;49.024;8.246;2024-02-26T12:29:01;1.48;;;0.77;;
22603;SDS011;11469;49.024;8.246;2024-02-26T12:31:26;2.05;;;0.90;;
22603;SDS011;11469;49.024;8.246;2024-02-26T12:33:54;1.10;;;0.70;;
22603;SDS011;11469;49.024;8.246;2024-02-26T12:36:20;1.40;;;0.80;;
22603;SDS011;11469;49.024;8.246;2024-02-26T12:38:47;1.63;;;0.90;;
22603;SDS011;11469;49.024;8.246;2024-02-26T12:41:12;3.00;;;0.95;;
22603;SDS011;11469;49.024;8.246;2024-02-26T12:43:38;2.42;;;1.05;;
22603;SDS011;11469;49.024;8.246;2024-02-26T12:46:03;3.50;;;1.20;;
22603;SDS011;11469;49.024;8.246;2024-02-26T12:48:29;3.95;;;1.85;;
22603;SDS011;11469;49.024;8.246;2024-02-26T12:50:54;3.55;;;1.58;;
22603;SDS011;11469;49.024;8.246;2024-02-26T12:53:21;5.53;;;1.40;;
22603;SDS011;11469;49.024;8.246;2024-02-26T12:55:47;1.83;;;1.08;;
22603;SDS011;11469;49.024;8.246;2024-02-26T12:58:12;1.95;;;1.02;;
22603;SDS011;11469;49.024;8.246;2024-02-26T13:00:39;2.35;;;1.10;;
22603;SDS011;11469;49.024;8.246;2024-02-26T13:03:05;6.38;;;1.00;;
22603;SDS011;11469;49.024;8.246;2024-02-26T13:05:31;2.75;;;0.80;;
22603;SDS011;11469;49.024;8.246;2024-02-26T13:07:57;2.38;;;1.05;;
22603;SDS011;11469;49.024;8.246;2024-02-26T13:10:23;4.88;;;1.10;;
22603;SDS011;11469;49.024;8.246;2024-02-26T13:12:50;1.38;;;0.95;;
22603;SDS011;11469;49.024;8.246;2024-02-26T13:15:16;2.45;;;1.00;;
22603;SDS011;11469;49.024;8.246;2024-02-26T13:17:46;2.17;;;0.98;;
22603;SDS011;11469;49.024;8.246;2024-02-26T13:20:13;1.90;;;0.80;;
22603;SDS011;11469;49.024;8.246;2024-02-26T13:22:51;2.22;;;1.17;;
22603;SDS011;11469;49.024;8.246;2024-02-26T13:25:20;1.77;;;0.90;;
22603;SDS011;11469;49.024;8.246;2024-02-26T13:27:45;2.50;;;0.95;;
22603;SDS011;11469;49.024;8.246;2024-02-26T13:30:11;1.58;;;0.98;;
22603;SDS011;11469;49.024;8.246;2024-02-26T13:32:38;1.50;;;0.98;;
22603;SDS011;11469;49.024;8.246;2024-02-26T13:35:09;1.95;;;1.00;;
22603;SDS011;11469;49.024;8.246;2024-02-26T13:37:36;4.25;;;1.55;;
22603;SDS011;11469;49.024;8.246;2024-02-26T13:40:05;8.90;;;3.55;;
22603;SDS011;11469;49.024;8.246;2024-02-26T13:45:02;1.65;;;0.80;;
22603;SDS011;11469;49.024;8.246;2024-02-26T13:47:31;2.83;;;1.38;;
22603;SDS011;11469;49.024;8.246;2024-02-26T13:49:57;2.35;;;1.40;;
22603;SDS011;11469;49.024;8.246;2024-02-26T13:52:22;3.45;;;1.40;;
22603;SDS011;11469;49.024;8.246;2024-02-26T13:54:48;7.03;;;1.20;;
22603;SDS011;11469;49.024;8.246;2024-02-26T13:57:13;2.85;;;1.17;;
22603;SDS011;11469;49.024;8.246;2024-02-26T13:59:39;1.63;;;1.00;;
22603;SDS011;11469;49.024;8.246;2024-02-26T14:02:07;2.53;;;1.05;;
22603;SDS011;11469;49.024;8.246;2024-02-26T14:04:36;5.38;;;1.30;;
22603;SDS011;11469;49.024;8.246;2024-02-26T14:07:02;2.70;;;1.60;;
22603;SDS011;11469;49.024;8.246;2024-02-26T14:09:28;4.57;;;1.15;;
22603;SDS011;11469;49.024;8.246;2024-02-26T14:11:53;2.00;;;1.20;;
22603;SDS011;11469;49.024;8.246;2024-02-26T14:14:19;1.38;;;0.82;;
22603;SDS011;11469;49.024;8.246;2024-02-26T14:16:44;2.50;;;1.02;;
22603;SDS011;11469;49.024;8.246;2024-02-26T14:19:09;2.55;;;1.35;;
22603;SDS011;11469;49.024;8.246;2024-02-26T14:21:35;3.08;;;0.93;;
22603;SDS011;11469;49.024;8.246;2024-02-26T14:24:00;3.00;;;0.98;;
22603;SDS011;11469;49.024;8.246;2024-02-26T14:26:26;4.90;;;1.00;;
22603;SDS011;11469;49.024;8.246;2024-02-26T14:28:51;2.95;;;0.70;;
22603;SDS011;11469;49.024;8.246;2024-02-26T14:31:19;1.73;;;0.98;;
22603;SDS011;11469;49.024;8.246;2024-02-26T14:33:44;4.63;;;1.08;;
22603;SDS011;11469;49.024;8.246;2024-02-26T14:36:10;4.15;;;0.85;;
22603;SDS011;11469;49.024;8.246;2024-02-26T14:38:36;1.20;;;0.60;;
22603;SDS011;11469;49.024;8.246;2024-02-26T14:41:02;2.45;;;1.05;;
22603;SDS011;11469;49.024;8.246;2024-02-26T14:43:28;2.45;;;0.90;;
22603;SDS011;11469;49.024;8.246;2024-02-26T14:45:54;1.25;;;0.63;;
22603;SDS011;11469;49.024;8.246;2024-02-26T14:48:19;2.47;;;0.70;;
22603;SDS011;11469;49.024;8.246;2024-02-26T14:50:45;1.75;;;0.70;;
22603;SDS011;11469;49.024;8.246;2024-02-26T14:53:10;2.78;;;1.30;;